Time;durP1;ratioP1;P1;durP2;ratioP2;P2;SDS_P1;SDS_P2;PMS_P1;PMS_P2;Temp;Humidity;BMP_temperature;BMP_pressure;BME280_temperature;BME280_humidity;BME280_pressure;Samples;Min_cycle;Max_cycle;Signal;HPM_P1;HPM_P2
2021/01/10 00:00:06;;;;;;;90.10;31.30;;;1.30;97.50;;;;;;5110883;28;20420;-89
2021/01/10 00:02:31;;;;;;;104.05;32.33;;;1.40;97.70;;;;;;5110579;28;20377;-90
2021/01/10 00:04:57;;;;;;;96.40;32.83;;;1.40;97.70;;;;;;5110753;28;20389;-89
2021/01/10 00:07:26;;;;;;;99.50;32.10;;;1.30;97.70;;;;;;5110079;28;20883;-89
2021/01/10 00:09:53;;;;;;;93.38;32.13;;;1.30;97.70;;;;;;5110603;28;20442;-90
2021/01/10 00:12:23;;;;;;;89.78;30.70;;;1.30;97.70;;;;;;5110808;28;20422;-90
2021/01/10 00:14:49;;;;;;;95.60;31.65;;;1.30;97.80;;;;;;5110713;28;20917;-90
2021/01/10 00:17:15;;;;;;;85.63;30.05;;;1.40;97.80;;;;;;5109934;28;20388;-89
2021/01/10 00:19:45;;;;;;;94.13;32.00;;;1.30;97.80;;;;;;5110293;28;20388;-89
2021/01/10 00:22:16;;;;;;;88.55;31.75;;;1.30;97.80;;;;;;5110723;28;20387;-89
2021/01/10 00:24:42;;;;;;;85.75;30.85;;;1.30;97.90;;;;;;5110410;28;20446;-90
2021/01/10 00:27:11;;;;;;;86.70;29.90;;;1.40;97.90;;;;;;5109031;28;20891;-90
2021/01/10 00:29:37;;;;;;;85.57;30.52;;;1.40;97.90;;;;;;5110400;28;20384;-89
2021/01/10 00:32:04;;;;;;;80.93;31.08;;;1.40;97.90;;;;;;5110550;28;20786;-89
2021/01/10 00:34:31;;;;;;;92.10;29.92;;;1.40;97.80;;;;;;5110439;28;20429;-89
2021/01/10 00:36:57;;;;;;;96.22;31.63;;;1.30;97.80;;;;;;5110236;28;20384;-89
2021/01/10 00:39:22;;;;;;;102.82;31.45;;;1.40;97.80;;;;;;5113890;28;20749;-90
2021/01/10 00:41:48;;;;;;;89.65;29.58;;;1.30;97.70;;;;;;5110224;28;20407;-90
2021/01/10 00:44:14;;;;;;;75.40;28.37;;;1.20;97.70;;;;;;5110378;28;20376;-90
2021/01/10 00:46:40;;;;;;;79.85;28.92;;;1.30;97.70;;;;;;5109835;28;20744;-90
2021/01/10 00:49:06;;;;;;;77.57;27.60;;;1.30;97.80;;;;;;5111409;28;20404;-90
2021/01/10 00:51:32;;;;;;;80.05;27.73;;;1.30;97.80;;;;;;5113966;28;20384;-89
2021/01/10 00:53:57;;;;;;;72.18;27.27;;;1.30;97.80;;;;;;5114287;28;20380;-89
2021/01/10 00:56:23;;;;;;;79.33;28.77;;;1.30;97.80;;;;;;5114069;28;20404;-89
2021/01/10 00:58:49;;;;;;;88.37;30.20;;;1.20;97.70;;;;;;5113717;28;20380;-89
2021/01/10 01:01:14;;;;;;;89.88;29.98;;;1.20;97.80;;;;;;5113768;28;20883;-90
2021/01/10 01:03:40;;;;;;;94.85;31.70;;;1.20;97.80;;;;;;5114097;28;20411;-89
2021/01/10 01:06:11;;;;;;;94.53;31.53;;;1.20;97.80;;;;;;5113757;28;20461;-90
2021/01/10 01:08:39;;;;;;;105.18;32.53;;;1.30;97.70;;;;;;5113866;28;20477;-89
2021/01/10 01:11:05;;;;;;;117.25;32.92;;;1.20;97.80;;;;;;5113561;28;20463;-90
2021/01/10 01:13:30;;;;;;;101.83;32.53;;;1.20;97.80;;;;;;5113876;28;20990;-90
2021/01/10 01:15:56;;;;;;;110.22;33.67;;;1.20;97.80;;;;;;5113711;28;20733;-89
2021/01/10 01:18:22;;;;;;;96.22;31.90;;;1.30;97.80;;;;;;5113089;28;20389;-89
2021/01/10 01:20:47;;;;;;;94.55;30.10;;;1.30;97.90;;;;;;5113840;28;20447;-90
2021/01/10 01:23:13;;;;;;;110.97;32.73;;;1.20;97.90;;;;;;5113568;28;20466;-90
2021/01/10 01:25:39;;;;;;;132.97;35.30;;;1.30;97.90;;;;;;5113471;28;20387;-89
2021/01/10 01:28:05;;;;;;;128.65;36.15;;;1.30;97.80;;;;;;5113123;28;20406;-89
2021/01/10 01:30:31;;;;;;;118.82;33.22;;;1.40;97.80;;;;;;5113801;28;20385;-90
2021/01/10 01:32:57;;;;;;;99.70;33.10;;;1.30;97.80;;;;;;5113261;28;20396;-91
2021/01/10 01:35:23;;;;;;;134.10;33.80;;;1.40;97.80;;;;;;5113709;28;20385;-90
2021/01/10 01:37:48;;;;;;;104.73;33.00;;;1.40;97.70;;;;;;5112932;28;20740;-90
2021/01/10 01:40:14;;;;;;;95.45;32.95;;;1.30;97.70;;;;;;5113609;28;20395;-89
2021/01/10 01:42:40;;;;;;;105.65;33.78;;;1.30;97.80;;;;;;5113380;28;20430;-90
2021/01/10 01:45:07;;;;;;;111.72;32.40;;;1.30;97.80;;;;;;5113424;28;20463;-91
2021/01/10 01:47:34;;;;;;;123.57;34.90;;;1.20;97.90;;;;;;5112935;28;20677;-90
2021/01/10 01:50:06;;;;;;;128.88;36.80;;;1.20;97.90;;;;;;5113000;28;20384;-90
2021/01/10 01:52:35;;;;;;;112.90;34.22;;;1.20;97.90;;;;;;5113391;28;20804;-90
2021/01/10 01:55:01;;;;;;;148.90;35.72;;;1.20;97.90;;;;;;5112784;28;20880;-90
2021/01/10 01:57:27;;;;;;;121.72;34.30;;;1.30;97.90;;;;;;5113091;28;20384;-90
2021/01/10 01:59:56;;;;;;;113.53;33.92;;;1.40;97.90;;;;;;5111864;28;20997;-90
2021/01/10 02:02:22;;;;;;;122.18;34.80;;;1.20;97.80;;;;;;5113188;28;20745;-90
2021/01/10 02:04:59;;;;;;;106.77;35.00;;;1.20;97.90;;;;;;5113055;28;20449;-89
2021/01/10 02:07:31;;;;;;;114.30;33.03;;;1.10;97.90;;;;;;5112501;28;20454;-90
2021/01/10 02:10:07;;;;;;;123.53;36.33;;;1.10;97.90;;;;;;5112992;28;20798;-90
2021/01/10 02:12:37;;;;;;;149.10;38.30;;;1.20;97.90;;;;;;5113965;28;20380;-90
2021/01/10 02:15:13;;;;;;;148.55;37.40;;;1.20;97.90;;;;;;5112988;28;20384;-89
2021/01/10 02:17:44;;;;;;;153.03;37.47;;;1.20;97.90;;;;;;5112275;28;20495;-90
2021/01/10 02:20:14;;;;;;;159.48;41.10;;;1.20;97.80;;;;;;5112783;28;20468;-89
2021/01/10 02:22:49;;;;;;;123.93;36.07;;;1.20;97.80;;;;;;5113672;28;20369;-91
2021/01/10 02:25:15;;;;;;;112.87;34.03;;;1.10;97.80;;;;;;5112820;28;20388;-89
2021/01/10 02:27:42;;;;;;;129.15;34.70;;;1.20;97.90;;;;;;5111749;28;20404;-89
2021/01/10 02:30:09;;;;;;;122.40;35.53;;;1.20;97.90;;;;;;5112395;28;20409;-89
2021/01/10 02:32:37;;;;;;;115.90;32.40;;;1.10;97.90;;;;;;5112223;28;20479;-90
2021/01/10 02:35:04;;;;;;;103.60;31.83;;;1.10;98.00;;;;;;5112152;28;20380;-89
2021/01/10 02:37:36;;;;;;;106.22;34.08;;;1.20;98.00;;;;;;5111799;28;20412;-89
2021/01/10 02:40:11;;;;;;;138.27;35.78;;;1.20;98.00;;;;;;5111964;28;20396;-89
2021/01/10 02:42:55;;;;;;;120.47;35.13;;;1.20;97.90;;;;;;5112240;28;20385;-90
2021/01/10 02:45:22;;;;;;;100.97;32.65;;;1.20;97.90;;;;;;5111944;28;20490;-89
2021/01/10 02:47:48;;;;;;;94.30;30.23;;;1.30;97.90;;;;;;5111587;28;20884;-89
2021/01/10 02:50:17;;;;;;;102.70;32.38;;;1.20;97.80;;;;;;5111714;28;20385;-90
2021/01/10 02:52:45;;;;;;;94.28;31.13;;;1.30;97.70;;;;;;5112022;28;20916;-89
2021/01/10 02:55:11;;;;;;;101.10;31.40;;;1.20;97.70;;;;;;5112035;28;20466;-90
2021/01/10 02:57:38;;;;;;;89.70;30.17;;;1.40;97.70;;;;;;5111373;28;20397;-90
2021/01/10 03:00:07;;;;;;;100.07;30.40;;;1.30;97.50;;;;;;5111965;28;20388;-90
2021/01/10 03:02:34;;;;;;;81.20;29.58;;;1.30;97.60;;;;;;5111202;28;20481;-89
2021/01/10 03:05:01;;;;;;;82.93;28.25;;;1.30;97.50;;;;;;5111848;28;20460;-90
2021/01/10 03:07:27;;;;;;;92.30;31.15;;;1.30;97.50;;;;;;5111111;28;20409;-89
2021/01/10 03:09:55;;;;;;;113.57;32.20;;;1.40;97.50;;;;;;5111753;28;20439;-90
2021/01/10 03:12:26;;;;;;;83.65;28.85;;;1.30;97.50;;;;;;5111187;28;20436;-90
2021/01/10 03:15:10;;;;;;;79.45;28.25;;;1.30;97.50;;;;;;5113193;28;20459;-89
2021/01/10 03:17:37;;;;;;;75.60;26.63;;;1.30;97.50;;;;;;5112835;28;20381;-89
2021/01/10 03:20:09;;;;;;;88.43;29.50;;;1.30;97.50;;;;;;5111438;28;20388;-90
2021/01/10 03:22:35;;;;;;;92.13;30.27;;;1.20;97.50;;;;;;5111303;28;20381;-90
2021/01/10 03:25:01;;;;;;;98.03;30.70;;;1.20;97.60;;;;;;5111236;28;20384;-89
2021/01/10 03:27:27;;;;;;;107.82;30.98;;;1.30;97.60;;;;;;5111006;28;20465;-89
2021/01/10 03:29:53;;;;;;;119.43;32.70;;;1.30;97.50;;;;;;5111195;28;20556;-90
2021/01/10 03:32:19;;;;;;;112.18;33.28;;;1.20;97.60;;;;;;5111311;28;20377;-89
2021/01/10 03:34:57;;;;;;;107.35;32.53;;;1.20;97.70;;;;;;5111674;28;20388;-89
2021/01/10 03:37:23;;;;;;;94.90;30.87;;;1.30;97.70;;;;;;5110507;28;20387;-89
2021/01/10 03:39:49;;;;;;;98.78;31.80;;;1.10;97.60;;;;;;5111211;28;20380;-89
2021/01/10 03:42:14;;;;;;;98.28;30.90;;;1.10;97.70;;;;;;5110681;28;20381;-89
2021/01/10 03:44:40;;;;;;;103.22;31.65;;;1.20;97.70;;;;;;5111052;28;20395;-90
2021/01/10 03:47:05;;;;;;;102.07;31.80;;;1.20;97.60;;;;;;5110605;28;20381;-89
2021/01/10 03:49:31;;;;;;;93.93;31.40;;;1.10;97.50;;;;;;5110626;28;20419;-89
2021/01/10 03:51:57;;;;;;;99.53;31.33;;;1.10;97.60;;;;;;5110710;28;20434;-89
2021/01/10 03:54:23;;;;;;;94.68;31.20;;;1.10;97.70;;;;;;5110603;28;20402;-90
2021/01/10 03:56:49;;;;;;;99.40;31.38;;;1.20;97.70;;;;;;5110359;28;20484;-90
2021/01/10 03:59:14;;;;;;;101.53;32.13;;;1.20;97.60;;;;;;5110479;28;20388;-90
2021/01/10 04:01:40;;;;;;;91.05;30.27;;;1.10;97.60;;;;;;5110789;28;20411;-89
2021/01/10 04:04:06;;;;;;;93.80;31.30;;;1.10;97.50;;;;;;5110551;28;20381;-90
2021/01/10 04:06:32;;;;;;;97.93;31.02;;;1.10;97.50;;;;;;5111890;28;20418;-89
2021/01/10 04:08:58;;;;;;;95.37;32.23;;;1.20;97.60;;;;;;5110080;28;20513;-90
2021/01/10 04:11:24;;;;;;;83.53;29.27;;;1.10;97.60;;;;;;5110756;28;20740;-90
2021/01/10 04:13:50;;;;;;;90.33;29.13;;;1.20;97.50;;;;;;5110470;28;20389;-90
2021/01/10 04:16:16;;;;;;;90.82;28.50;;;1.10;97.50;;;;;;5110362;28;20384;-89
2021/01/10 04:18:41;;;;;;;75.80;27.67;;;1.20;97.50;;;;;;5110218;28;20387;-90
2021/01/10 04:21:07;;;;;;;73.68;27.02;;;1.10;97.50;;;;;;5110463;28;20734;-89
2021/01/10 04:23:33;;;;;;;86.22;28.92;;;1.20;97.70;;;;;;5110022;28;20869;-89
2021/01/10 04:25:59;;;;;;;109.38;31.75;;;1.10;97.60;;;;;;5110285;28;20845;-88
2021/01/10 04:28:25;;;;;;;82.57;28.50;;;1.20;97.70;;;;;;5110101;28;20426;-89
2021/01/10 04:30:50;;;;;;;79.30;28.48;;;1.20;97.70;;;;;;5109853;28;20384;-89
2021/01/10 04:33:16;;;;;;;85.10;28.40;;;1.10;97.60;;;;;;5110533;28;20380;-90
2021/01/10 04:35:42;;;;;;;92.23;29.90;;;1.00;97.80;;;;;;5111510;28;20508;-89
2021/01/10 04:38:08;;;;;;;86.47;29.83;;;1.20;97.90;;;;;;5109986;28;20380;-89
2021/01/10 04:40:34;;;;;;;79.53;28.45;;;1.10;97.70;;;;;;5110124;28;20380;-90
2021/01/10 04:42:59;;;;;;;81.82;28.08;;;1.10;97.70;;;;;;5110491;28;20450;-90
2021/01/10 04:45:25;;;;;;;70.73;27.60;;;1.10;97.70;;;;;;5109963;28;20420;-90
2021/01/10 04:47:51;;;;;;;76.05;27.63;;;1.10;97.60;;;;;;5111037;28;20392;-91
2021/01/10 04:50:17;;;;;;;70.95;26.60;;;1.10;97.60;;;;;;5110692;28;20726;-90
2021/01/10 04:52:45;;;;;;;69.40;25.42;;;1.00;97.60;;;;;;5109992;28;20380;-90
2021/01/10 04:55:13;;;;;;;78.70;26.77;;;1.00;97.60;;;;;;5111606;28;20371;-90
2021/01/10 04:57:41;;;;;;;84.53;27.87;;;1.10;97.70;;;;;;5109865;28;20388;-90
2021/01/10 05:00:10;;;;;;;88.20;28.43;;;1.10;97.60;;;;;;5110360;28;20423;-89
2021/01/10 05:02:45;;;;;;;93.43;28.73;;;1.10;97.60;;;;;;5111577;28;20380;-90
2021/01/10 05:05:12;;;;;;;76.90;27.55;;;1.10;97.50;;;;;;5110178;28;20421;-90
2021/01/10 05:07:40;;;;;;;82.05;28.08;;;1.10;97.40;;;;;;5109359;28;20824;-90
2021/01/10 05:10:06;;;;;;;81.30;27.60;;;1.10;97.40;;;;;;5110013;28;20479;-91
2021/01/10 05:12:32;;;;;;;81.00;28.08;;;1.00;97.50;;;;;;5109621;28;20396;-90
2021/01/10 05:14:58;;;;;;;79.75;28.00;;;1.00;97.60;;;;;;5110012;28;20414;-90
2021/01/10 05:17:24;;;;;;;87.85;27.20;;;1.00;97.60;;;;;;5109685;28;20702;-90
2021/01/10 05:19:52;;;;;;;80.40;26.17;;;1.00;97.50;;;;;;5109992;28;20395;-90
2021/01/10 05:22:20;;;;;;;70.28;25.55;;;0.90;97.60;;;;;;5110002;28;20774;-90
2021/01/10 05:24:48;;;;;;;79.70;26.80;;;1.00;97.70;;;;;;5109813;28;20397;-90
2021/01/10 05:27:14;;;;;;;75.90;26.37;;;1.10;97.70;;;;;;5109611;28;20416;-90
2021/01/10 05:29:45;;;;;;;77.18;25.73;;;1.00;97.50;;;;;;5109829;28;20447;-90
2021/01/10 05:32:12;;;;;;;70.18;24.27;;;1.00;97.30;;;;;;5109800;28;20430;-90
2021/01/10 05:34:37;;;;;;;71.15;25.13;;;0.90;97.20;;;;;;5109914;28;20475;-90
2021/01/10 05:37:14;;;;;;;65.57;23.98;;;1.00;97.30;;;;;;5112678;28;20404;-90
2021/01/10 05:39:45;;;;;;;81.68;27.45;;;0.90;97.40;;;;;;5111784;28;20896;-91
2021/01/10 05:42:12;;;;;;;68.30;25.23;;;0.90;97.30;;;;;;5113412;28;20928;-90
2021/01/10 05:44:40;;;;;;;84.25;27.55;;;0.90;97.40;;;;;;5113713;28;20391;-90
2021/01/10 05:47:09;;;;;;;75.70;26.88;;;1.00;97.40;;;;;;5114398;28;20384;-90
2021/01/10 05:49:43;;;;;;;85.00;27.43;;;1.00;97.20;;;;;;5113766;28;20423;-91
2021/01/10 05:52:11;;;;;;;83.65;29.33;;;0.90;97.20;;;;;;5113478;28;20384;-91
2021/01/10 05:54:43;;;;;;;85.30;28.00;;;0.90;97.30;;;;;;5113479;28;20411;-90
2021/01/10 05:57:24;;;;;;;94.55;28.88;;;0.90;97.30;;;;;;5114135;28;20819;-91
2021/01/10 05:59:54;;;;;;;83.93;25.75;;;0.90;97.30;;;;;;5113309;28;20449;-90
2021/01/10 06:02:31;;;;;;;72.60;26.35;;;0.90;97.50;;;;;;5113239;28;20385;-90
2021/01/10 06:05:13;;;;;;;80.50;27.80;;;0.90;97.50;;;;;;5112885;28;20389;-91
2021/01/10 06:07:39;;;;;;;79.80;26.45;;;0.90;97.30;;;;;;5112645;28;20392;-92
2021/01/10 06:10:06;;;;;;;88.20;29.48;;;0.90;97.50;;;;;;5112768;28;20385;-90
2021/01/10 06:12:33;;;;;;;74.65;26.80;;;0.90;97.40;;;;;;5112883;28;20784;-90
2021/01/10 06:15:13;;;;;;;90.50;28.63;;;0.90;97.50;;;;;;5112764;28;20388;-91
2021/01/10 06:17:46;;;;;;;73.90;25.50;;;0.90;97.30;;;;;;5112391;28;20395;-90
2021/01/10 06:20:32;;;;;;;69.60;25.50;;;0.90;97.30;;;;;;5112867;28;20442;-90
2021/01/10 06:23:00;;;;;;;69.70;24.42;;;0.90;97.40;;;;;;5112667;28;20869;-89
2021/01/10 06:25:35;;;;;;;81.30;26.00;;;0.90;97.50;;;;;;5112864;28;20436;-91
2021/01/10 06:28:19;;;;;;;89.43;27.02;;;0.90;97.30;;;;;;5112657;28;20907;-90
2021/01/10 06:30:54;;;;;;;67.85;24.48;;;0.90;97.20;;;;;;5112707;28;20388;-91
2021/01/10 06:33:31;;;;;;;65.65;25.13;;;0.90;97.40;;;;;;5111558;28;20479;-91
2021/01/10 06:36:03;;;;;;;80.40;26.83;;;0.90;97.30;;;;;;5112298;28;20380;-91
2021/01/10 06:38:36;;;;;;;79.88;27.30;;;0.90;97.10;;;;;;5111995;28;20557;-90
2021/01/10 06:41:19;;;;;;;70.28;26.48;;;0.90;97.30;;;;;;5112375;28;20448;-91
2021/01/10 06:43:52;;;;;;;84.28;28.50;;;0.90;97.40;;;;;;5112401;28;20392;-91
2021/01/10 06:46:19;;;;;;;97.88;31.52;;;0.90;97.30;;;;;;5111540;28;20384;-91
2021/01/10 06:48:45;;;;;;;91.78;28.92;;;0.70;97.30;;;;;;5111840;28;20495;-91
2021/01/10 06:51:14;;;;;;;81.78;28.63;;;0.70;97.70;;;;;;5111933;28;20653;-91
2021/01/10 06:53:39;;;;;;;93.75;29.15;;;0.70;97.80;;;;;;5112196;28;20384;-90
2021/01/10 06:56:08;;;;;;;104.93;31.48;;;0.80;97.80;;;;;;5111692;28;20745;-90
2021/01/10 06:58:33;;;;;;;88.88;29.10;;;0.70;97.60;;;;;;5111145;28;20855;-86
2021/01/10 07:00:59;;;;;;;93.55;28.90;;;0.60;97.50;;;;;;5112177;28;20404;-86
2021/01/10 07:03:28;;;;;;;115.80;31.97;;;0.70;97.60;;;;;;5112069;28;20688;-85
2021/01/10 07:06:10;;;;;;;96.75;30.10;;;0.70;97.70;;;;;;5110913;28;20734;-85
2021/01/10 07:08:38;;;;;;;100.57;31.90;;;0.60;97.80;;;;;;5111507;27;20407;-86
2021/01/10 07:11:22;;;;;;;117.15;32.75;;;0.70;97.60;;;;;;5112115;28;20384;-85
2021/01/10 07:13:49;;;;;;;85.22;27.90;;;0.60;97.50;;;;;;5110849;28;20391;-86
2021/01/10 07:16:25;;;;;;;96.22;29.75;;;0.50;97.70;;;;;;5110493;28;20384;-85
2021/01/10 07:19:03;;;;;;;76.47;26.75;;;0.50;97.70;;;;;;5111638;28;20872;-86
2021/01/10 07:21:38;;;;;;;87.25;27.98;;;0.60;97.70;;;;;;5111752;28;20875;-86
2021/01/10 07:24:12;;;;;;;102.30;29.92;;;0.70;97.70;;;;;;5112114;28;20468;-86
2021/01/10 07:26:59;;;;;;;77.07;27.52;;;0.50;97.60;;;;;;5111262;28;20388;-86
2021/01/10 07:29:25;;;;;;;78.53;27.13;;;0.50;97.70;;;;;;5111714;28;20403;-86
2021/01/10 07:31:54;;;;;;;82.93;26.80;;;0.60;97.80;;;;;;5110491;28;20396;-86
2021/01/10 07:34:20;;;;;;;79.82;27.70;;;0.60;97.70;;;;;;5111815;28;20460;-86
2021/01/10 07:36:47;;;;;;;85.60;28.03;;;0.70;97.70;;;;;;5110292;28;20805;-86
2021/01/10 07:39:14;;;;;;;88.07;28.98;;;0.70;97.40;;;;;;5111214;28;20445;-86
2021/01/10 07:41:39;;;;;;;80.55;27.90;;;0.60;97.40;;;;;;5111921;28;20772;-86
2021/01/10 07:44:05;;;;;;;79.97;28.00;;;0.60;97.30;;;;;;5111563;28;20449;-90
2021/01/10 07:46:51;;;;;;;75.28;27.05;;;0.70;97.20;;;;;;5110951;28;20431;-90
2021/01/10 07:49:24;;;;;;;70.32;26.75;;;0.50;97.30;;;;;;5109997;28;20404;-90
2021/01/10 07:51:49;;;;;;;81.68;28.25;;;0.60;97.50;;;;;;5109790;28;20447;-91
2021/01/10 07:54:16;;;;;;;78.43;27.87;;;0.60;97.40;;;;;;5110690;28;20415;-91
2021/01/10 07:56:42;;;;;;;85.25;28.52;;;0.60;97.30;;;;;;5110403;28;20483;-91
2021/01/10 07:59:17;;;;;;;92.43;29.00;;;0.60;97.30;;;;;;5109934;28;20475;-91
2021/01/10 08:01:50;;;;;;;80.55;28.50;;;0.60;97.40;;;;;;5110378;28;20707;-91
2021/01/10 08:04:33;;;;;;;70.93;25.40;;;0.60;97.40;;;;;;5110680;28;20614;-91
2021/01/10 08:07:00;;;;;;;66.13;24.55;;;0.60;97.40;;;;;;5109996;28;20445;-91
2021/01/10 08:09:32;;;;;;;71.97;26.33;;;0.60;97.50;;;;;;5110288;28;20430;-91
2021/01/10 08:11:58;;;;;;;85.63;26.80;;;0.70;97.60;;;;;;5110011;28;20737;-90
2021/01/10 08:14:24;;;;;;;76.63;26.80;;;0.80;97.40;;;;;;5110114;28;20452;-90
2021/01/10 08:16:49;;;;;;;71.53;24.33;;;0.70;97.50;;;;;;5110091;28;20463;-90
2021/01/10 08:19:16;;;;;;;66.85;25.25;;;0.70;97.50;;;;;;5110262;28;20416;-90
2021/01/10 08:21:42;;;;;;;74.82;25.88;;;0.80;97.50;;;;;;5110466;28;20448;-90
2021/01/10 08:24:08;;;;;;;79.30;27.03;;;0.90;97.30;;;;;;5110458;28;20448;-90
2021/01/10 08:26:41;;;;;;;61.53;23.35;;;0.80;97.30;;;;;;5110367;28;20388;-90
2021/01/10 08:29:08;;;;;;;67.93;25.13;;;0.80;97.30;;;;;;5110494;28;20438;-90
2021/01/10 08:31:34;;;;;;;70.35;25.83;;;0.90;97.30;;;;;;5111380;28;20398;-91
2021/01/10 08:34:04;;;;;;;68.75;25.27;;;1.00;97.00;;;;;;5112121;28;20381;-90
2021/01/10 08:36:30;;;;;;;78.22;25.42;;;0.90;97.10;;;;;;5111465;28;20445;-90
2021/01/10 08:39:03;;;;;;;75.53;24.70;;;0.90;97.10;;;;;;5112360;28;20857;-92
2021/01/10 08:41:33;;;;;;;62.17;22.35;;;1.00;96.90;;;;;;5112771;28;20872;-90
2021/01/10 08:44:01;;;;;;;59.37;21.93;;;1.00;97.20;;;;;;5113167;28;20473;-91
2021/01/10 08:46:28;;;;;;;66.28;22.00;;;1.10;97.20;;;;;;5114408;28;20695;-90
2021/01/10 08:48:55;;;;;;;61.88;21.95;;;1.20;96.80;;;;;;5111850;28;20408;-89
2021/01/10 08:51:32;;;;;;;60.78;21.55;;;1.20;96.70;;;;;;5112262;28;20388;-90
2021/01/10 08:53:59;;;;;;;54.63;19.33;;;1.20;96.70;;;;;;5111397;28;20385;-90
2021/01/10 08:56:25;;;;;;;59.63;21.95;;;1.20;96.60;;;;;;5113160;28;20392;-90
2021/01/10 08:58:55;;;;;;;55.25;21.10;;;1.30;96.60;;;;;;5111548;28;20896;-89
2021/01/10 09:01:26;;;;;;;64.20;21.45;;;1.20;96.50;;;;;;5113614;28;20448;-89
2021/01/10 09:04:09;;;;;;;54.67;19.88;;;1.30;96.30;;;;;;5114055;28;20438;-89
2021/01/10 09:07:19;;;;;;;67.95;21.55;;;1.30;96.20;;;;;;5113131;28;20396;-89
2021/01/10 09:09:53;;;;;;;54.70;19.40;;;1.30;96.60;;;;;;5045095;28;20815;-89
2021/01/10 09:12:35;;;;;;;50.28;19.42;;;1.30;97.00;;;;;;5098381;28;20461;-89
2021/01/10 09:15:18;;;;;;;53.13;18.40;;;1.30;96.90;;;;;;5113795;28;20388;-89
2021/01/10 09:17:47;;;;;;;52.47;20.13;;;1.40;96.60;;;;;;5113348;28;20403;-89
2021/01/10 09:20:24;;;;;;;58.23;20.83;;;1.40;96.30;;;;;;5113435;28;20384;-90
2021/01/10 09:22:50;;;;;;;55.50;19.42;;;1.40;96.20;;;;;;5113541;28;20384;-91
2021/01/10 09:25:18;;;;;;;48.70;18.52;;;1.50;96.10;;;;;;5113850;28;20861;-89
2021/01/10 09:28:08;;;;;;;52.90;19.52;;;1.50;95.70;;;;;;5113123;28;20872;-89
2021/01/10 09:30:39;;;;;;;55.53;20.10;;;1.60;95.50;;;;;;5113727;28;20389;-89
2021/01/10 09:33:06;;;;;;;53.50;18.00;;;1.60;96.20;;;;;;5113593;28;20377;-90
2021/01/10 09:35:37;;;;;;;51.03;19.00;;;1.50;96.00;;;;;;5113836;28;20471;-89
2021/01/10 09:38:11;;;;;;;52.15;18.52;;;1.70;96.50;;;;;;5114423;28;20416;-89
2021/01/10 09:40:37;;;;;;;42.30;17.92;;;1.70;95.80;;;;;;5113520;28;20403;-89
2021/01/10 09:43:02;;;;;;;48.22;17.88;;;1.70;94.80;;;;;;5113561;28;20381;-90
2021/01/10 09:45:36;;;;;;;49.43;18.17;;;1.70;95.20;;;;;;5113127;28;20480;-89
2021/01/10 09:48:03;;;;;;;49.65;17.17;;;1.70;95.70;;;;;;5112713;28;20477;-89
2021/01/10 09:50:31;;;;;;;45.75;17.83;;;1.70;95.00;;;;;;5112863;28;20472;-89
2021/01/10 09:52:56;;;;;;;55.30;18.80;;;1.70;94.80;;;;;;5113203;28;20812;-89
2021/01/10 09:55:27;;;;;;;46.10;18.80;;;1.80;95.90;;;;;;5112931;28;20396;-88
2021/01/10 09:57:54;;;;;;;54.40;18.80;;;1.70;95.50;;;;;;5112333;28;20399;-88
2021/01/10 10:00:20;;;;;;;53.03;20.08;;;1.80;96.20;;;;;;5112873;28;20403;-90
2021/01/10 10:02:49;;;;;;;52.88;20.02;;;1.80;96.10;;;;;;5112781;28;20481;-88
2021/01/10 10:05:19;;;;;;;55.45;20.05;;;1.90;95.80;;;;;;5112845;28;20411;-89
2021/01/10 10:07:50;;;;;;;49.38;18.67;;;1.90;96.20;;;;;;5111702;28;20384;-88
2021/01/10 10:10:24;;;;;;;49.47;19.15;;;2.00;95.60;;;;;;5112041;28;20901;-86
2021/01/10 10:12:55;;;;;;;47.33;19.17;;;2.00;94.70;;;;;;5112907;28;20387;-86
2021/01/10 10:15:22;;;;;;;54.33;19.55;;;2.10;94.50;;;;;;5111917;28;20392;-81
2021/01/10 10:17:47;;;;;;;55.15;19.65;;;2.00;94.10;;;;;;5112520;28;20384;-88
2021/01/10 10:20:13;;;;;;;48.97;17.20;;;2.00;94.80;;;;;;5111657;28;20384;-89
2021/01/10 10:22:40;;;;;;;43.40;17.20;;;2.00;94.60;;;;;;5111334;28;20394;-88
2021/01/10 10:25:11;;;;;;;48.33;17.45;;;2.10;94.80;;;;;;5110619;28;20489;-89
2021/01/10 10:27:53;;;;;;;64.80;19.95;;;2.10;95.30;;;;;;5110086;28;20376;-89
2021/01/10 10:30:19;;;;;;;46.67;18.10;;;2.20;95.20;;;;;;5110785;28;20475;-88
2021/01/10 10:32:45;;;;;;;45.53;17.80;;;2.10;94.40;;;;;;5111221;28;20459;-88
2021/01/10 10:35:11;;;;;;;44.60;18.50;;;2.10;93.50;;;;;;5111858;28;20439;-88
2021/01/10 10:37:36;;;;;;;53.47;20.27;;;2.10;93.50;;;;;;5111792;28;20850;-88
2021/01/10 10:40:05;;;;;;;40.13;16.90;;;2.10;94.50;;;;;;5111829;28;20725;-88
2021/01/10 10:42:31;;;;;;;47.38;17.60;;;2.10;94.30;;;;;;5111905;28;20393;-88
2021/01/10 10:44:57;;;;;;;50.27;20.43;;;2.10;94.50;;;;;;5111611;28;20521;-87
2021/01/10 10:47:22;;;;;;;48.90;17.90;;;2.20;94.20;;;;;;5111509;28;20384;-87
2021/01/10 10:49:48;;;;;;;49.40;16.03;;;2.10;93.20;;;;;;5112550;28;20467;-88
2021/01/10 10:52:14;;;;;;;43.50;17.10;;;2.20;93.50;;;;;;5111437;28;20722;-87
2021/01/10 10:54:40;;;;;;;46.42;18.42;;;2.20;93.40;;;;;;5111663;28;20463;-87
2021/01/10 10:57:08;;;;;;;40.08;16.70;;;2.30;94.30;;;;;;5110554;28;20401;-87
2021/01/10 10:59:34;;;;;;;45.97;18.60;;;2.20;93.50;;;;;;5111390;28;20379;-87
2021/01/10 11:01:59;;;;;;;47.08;19.02;;;2.30;94.30;;;;;;5112734;28;20737;-87
2021/01/10 11:04:25;;;;;;;40.30;18.37;;;2.40;93.70;;;;;;5111361;28;20471;-87
2021/01/10 11:06:51;;;;;;;44.03;17.92;;;2.40;93.80;;;;;;5110546;28;20880;-87
2021/01/10 11:09:17;;;;;;;42.70;18.23;;;2.30;92.40;;;;;;5111120;28;20408;-87
2021/01/10 11:11:47;;;;;;;49.17;18.63;;;2.30;93.50;;;;;;5110552;28;20404;-88
2021/01/10 11:14:15;;;;;;;38.87;17.80;;;2.40;93.30;;;;;;5110568;28;20496;-87
2021/01/10 11:16:46;;;;;;;47.87;17.33;;;2.40;92.60;;;;;;5110621;27;20389;-87
2021/01/10 11:19:12;;;;;;;37.53;17.38;;;2.30;92.40;;;;;;5111970;28;20888;-88
2021/01/10 11:21:44;;;;;;;39.60;16.10;;;2.40;93.10;;;;;;5111793;28;20411;-87
2021/01/10 11:24:10;;;;;;;46.15;16.92;;;2.40;93.30;;;;;;5110437;28;20999;-88
2021/01/10 11:26:37;;;;;;;39.00;16.77;;;2.50;92.90;;;;;;5110663;28;20413;-87
2021/01/10 11:29:04;;;;;;;46.25;17.88;;;2.60;93.30;;;;;;5110615;28;20768;-88
2021/01/10 11:31:34;;;;;;;41.50;18.00;;;2.50;93.00;;;;;;5110716;28;20502;-88
2021/01/10 11:34:08;;;;;;;44.78;18.60;;;2.50;92.80;;;;;;5110178;28;20428;-88
2021/01/10 11:36:35;;;;;;;43.20;19.38;;;2.40;92.80;;;;;;5110739;28;20413;-89
2021/01/10 11:39:00;;;;;;;47.00;17.70;;;2.50;93.60;;;;;;5109646;28;20387;-87
2021/01/10 11:41:26;;;;;;;45.42;17.98;;;2.50;93.60;;;;;;5110754;28;20385;-87
2021/01/10 11:43:53;;;;;;;45.97;18.85;;;2.50;92.60;;;;;;5110484;28;20400;-87
2021/01/10 11:46:22;;;;;;;40.78;17.45;;;2.60;93.30;;;;;;5109795;28;20465;-88
2021/01/10 11:48:48;;;;;;;44.10;16.42;;;2.70;92.20;;;;;;5109760;28;20601;-87
2021/01/10 11:51:15;;;;;;;42.17;16.90;;;2.70;92.40;;;;;;5110189;28;20416;-87
2021/01/10 11:53:42;;;;;;;41.85;17.00;;;2.50;92.40;;;;;;5107627;28;20383;-87
2021/01/10 11:56:08;;;;;;;35.40;16.30;;;2.70;93.10;;;;;;5108457;28;20901;-87
2021/01/10 11:58:33;;;;;;;41.30;16.20;;;2.70;93.00;;;;;;5108254;28;20489;-88
2021/01/10 12:00:59;;;;;;;37.40;16.30;;;2.70;92.60;;;;;;5109828;28;20380;-88
2021/01/10 12:03:26;;;;;;;36.03;15.07;;;2.80;92.80;;;;;;5109955;28;20745;-87
2021/01/10 12:05:52;;;;;;;33.33;14.10;;;2.80;91.90;;;;;;5108915;28;20411;-87
2021/01/10 12:08:20;;;;;;;38.50;14.73;;;2.80;92.20;;;;;;5109670;28;20484;-87
2021/01/10 12:10:45;;;;;;;38.42;14.70;;;2.70;91.20;;;;;;5109733;28;20417;-88
2021/01/10 12:13:12;;;;;;;38.67;14.90;;;2.60;91.90;;;;;;5109757;28;20381;-87
2021/01/10 12:15:38;;;;;;;38.33;14.57;;;2.60;91.40;;;;;;5109520;28;20380;-88
2021/01/10 12:18:05;;;;;;;43.20;15.65;;;2.70;91.30;;;;;;5108866;28;20387;-87
2021/01/10 12:20:32;;;;;;;38.97;15.23;;;2.60;91.60;;;;;;5109845;28;20391;-89
2021/01/10 12:22:59;;;;;;;44.80;17.35;;;2.70;91.90;;;;;;5109243;28;20390;-88
2021/01/10 12:25:25;;;;;;;42.83;16.15;;;2.80;91.50;;;;;;5109740;28;20475;-87
2021/01/10 12:27:51;;;;;;;36.87;16.53;;;2.80;91.00;;;;;;5108848;28;20471;-88
2021/01/10 12:30:17;;;;;;;40.78;17.23;;;2.70;90.70;;;;;;5109966;28;20388;-87
2021/01/10 12:32:43;;;;;;;47.30;17.35;;;2.70;92.10;;;;;;5108933;28;20513;-88
2021/01/10 12:35:11;;;;;;;42.53;17.25;;;2.70;91.50;;;;;;5109665;28;20471;-88
2021/01/10 12:37:38;;;;;;;47.25;18.40;;;2.70;91.10;;;;;;5110269;28;20372;-88
2021/01/10 12:40:07;;;;;;;45.13;19.63;;;2.80;91.60;;;;;;5109288;28;20872;-88
2021/01/10 12:42:33;;;;;;;48.97;19.25;;;2.80;92.00;;;;;;5108956;28;20391;-88